sensor_id;sensor_type;location;lat;lon;timestamp;pressure;altitude;pressure_sealevel;temperature;humidity
78562;BME280;68963;52.138;5.446;2023-12-29T00:00:20;100668.41;;;9.85;100.00
78562;BME280;68963;52.138;5.446;2023-12-29T00:02:47;100659.50;;;9.86;100.00
78562;BME280;68963;52.138;5.446;2023-12-29T00:05:14;100644.38;;;9.88;100.00
78562;BME280;68963;52.138;5.446;2023-12-29T00:07:40;100653.50;;;9.92;100.00
78562;BME280;68963;52.138;5.446;2023-12-29T00:10:08;100659.56;;;9.92;100.00
78562;BME280;68963;52.138;5.446;2023-12-29T00:12:35;100648.84;;;9.94;100.00
78562;BME280;68963;52.138;5.446;2023-12-29T00:15:02;100647.88;;;9.95;100.00
78562;BME280;68963;52.138;5.446;2023-12-29T00:17:29;100652.13;;;9.96;100.00
78562;BME280;68963;52.138;5.446;2023-12-29T00:19:56;100651.06;;;9.90;100.00
78562;BME280;68963;52.138;5.446;2023-12-29T00:22:23;100658.91;;;9.84;100.00
78562;BME280;68963;52.138;5.446;2023-12-29T00:24:51;100669.53;;;9.76;100.00
78562;BME280;68963;52.138;5.446;2023-12-29T00:27:18;100655.69;;;9.67;100.00
78562;BME280;68963;52.138;5.446;2023-12-29T00:29:45;100631.13;;;9.60;100.00
78562;BME280;68963;52.138;5.446;2023-12-29T00:32:11;100651.25;;;9.53;100.00
78562;BME280;68963;52.138;5.446;2023-12-29T00:34:38;100653.44;;;9.49;100.00
78562;BME280;68963;52.138;5.446;2023-12-29T00:37:05;100644.16;;;9.47;100.00
78562;BME280;68963;52.138;5.446;2023-12-29T00:39:33;100638.03;;;9.46;100.00
78562;BME280;68963;52.138;5.446;2023-12-29T00:42:06;100638.69;;;9.48;100.00
78562;BME280;68963;52.138;5.446;2023-12-29T00:44:33;100635.03;;;9.49;100.00
78562;BME280;68963;52.138;5.446;2023-12-29T00:47:00;100624.38;;;9.51;100.00
78562;BME280;68963;52.138;5.446;2023-12-29T00:49:27;100619.56;;;9.54;100.00
78562;BME280;68963;52.138;5.446;2023-12-29T00:51:54;100603.41;;;9.57;100.00
78562;BME280;68963;52.138;5.446;2023-12-29T00:54:21;100616.34;;;9.59;100.00
78562;BME280;68963;52.138;5.446;2023-12-29T00:56:49;100620.03;;;9.64;100.00
78562;BME280;68963;52.138;5.446;2023-12-29T00:59:17;100609.97;;;9.68;100.00
78562;BME280;68963;52.138;5.446;2023-12-29T01:01:44;100617.84;;;9.68;100.00
78562;BME280;68963;52.138;5.446;2023-12-29T01:04:11;100622.56;;;9.73;100.00
78562;BME280;68963;52.138;5.446;2023-12-29T01:06:38;100612.66;;;9.75;100.00
78562;BME280;68963;52.138;5.446;2023-12-29T01:09:06;100617.56;;;9.78;100.00
78562;BME280;68963;52.138;5.446;2023-12-29T01:11:35;100620.63;;;9.81;100.00
78562;BME280;68963;52.138;5.446;2023-12-29T01:14:02;100613.38;;;9.83;100.00
78562;BME280;68963;52.138;5.446;2023-12-29T01:16:28;100630.56;;;9.86;100.00
78562;BME280;68963;52.138;5.446;2023-12-29T01:18:55;100607.53;;;9.88;100.00
78562;BME280;68963;52.138;5.446;2023-12-29T01:21:22;100637.47;;;9.87;100.00
78562;BME280;68963;52.138;5.446;2023-12-29T01:23:48;100615.22;;;9.89;100.00
78562;BME280;68963;52.138;5.446;2023-12-29T01:26:15;100593.19;;;9.90;100.00
78562;BME280;68963;52.138;5.446;2023-12-29T01:28:42;100598.47;;;9.90;100.00
78562;BME280;68963;52.138;5.446;2023-12-29T01:31:08;100599.28;;;9.91;100.00
78562;BME280;68963;52.138;5.446;2023-12-29T01:33:38;100603.16;;;9.95;100.00
78562;BME280;68963;52.138;5.446;2023-12-29T01:36:05;100610.22;;;9.95;100.00
78562;BME280;68963;52.138;5.446;2023-12-29T01:38:43;100604.31;;;9.92;100.00
78562;BME280;68963;52.138;5.446;2023-12-29T01:41:09;100600.88;;;9.92;100.00
78562;BME280;68963;52.138;5.446;2023-12-29T01:43:36;100594.00;;;9.91;100.00
78562;BME280;68963;52.138;5.446;2023-12-29T01:46:03;100595.00;;;9.90;100.00
78562;BME280;68963;52.138;5.446;2023-12-29T01:48:30;100601.25;;;9.89;100.00
78562;BME280;68963;52.138;5.446;2023-12-29T01:50:58;100595.00;;;9.90;100.00
78562;BME280;68963;52.138;5.446;2023-12-29T01:53:24;100610.16;;;9.88;100.00
78562;BME280;68963;52.138;5.446;2023-12-29T01:56:05;100596.19;;;9.87;100.00
78562;BME280;68963;52.138;5.446;2023-12-29T01:58:33;100609.16;;;9.89;100.00
78562;BME280;68963;52.138;5.446;2023-12-29T02:01:01;100605.06;;;9.86;100.00
78562;BME280;68963;52.138;5.446;2023-12-29T02:03:28;100604.25;;;9.86;100.00
78562;BME280;68963;52.138;5.446;2023-12-29T02:05:59;100604.25;;;9.86;100.00
78562;BME280;68963;52.138;5.446;2023-12-29T02:08:26;100607.69;;;9.86;100.00
78562;BME280;68963;52.138;5.446;2023-12-29T02:10:53;100598.19;;;9.85;100.00
78562;BME280;68963;52.138;5.446;2023-12-29T02:13:20;100608.91;;;9.84;100.00
78562;BME280;68963;52.138;5.446;2023-12-29T02:15:52;100621.44;;;9.82;100.00
78562;BME280;68963;52.138;5.446;2023-12-29T02:18:21;100616.81;;;9.84;100.00
78562;BME280;68963;52.138;5.446;2023-12-29T02:20:48;100623.06;;;9.83;100.00
78562;BME280;68963;52.138;5.446;2023-12-29T02:23:15;100615.16;;;9.83;100.00
78562;BME280;68963;52.138;5.446;2023-12-29T02:25:42;100609.72;;;9.84;100.00
78562;BME280;68963;52.138;5.446;2023-12-29T02:28:16;100626.53;;;9.83;100.00
78562;BME280;68963;52.138;5.446;2023-12-29T02:33:28;100626.31;;;9.85;100.00
78562;BME280;68963;52.138;5.446;2023-12-29T02:35:57;100629.16;;;9.83;100.00
78562;BME280;68963;52.138;5.446;2023-12-29T02:38:26;100613.53;;;9.82;100.00
78562;BME280;68963;52.138;5.446;2023-12-29T02:40:58;100608.28;;;9.82;100.00
78562;BME280;68963;52.138;5.446;2023-12-29T02:43:25;100622.81;;;9.78;100.00
78562;BME280;68963;52.138;5.446;2023-12-29T02:45:51;100621.56;;;9.74;100.00
78562;BME280;68963;52.138;5.446;2023-12-29T02:48:18;100618.28;;;9.72;100.00
78562;BME280;68963;52.138;5.446;2023-12-29T02:50:45;100625.56;;;9.70;100.00
78562;BME280;68963;52.138;5.446;2023-12-29T02:53:12;100618.69;;;9.68;100.00
78562;BME280;68963;52.138;5.446;2023-12-29T02:55:38;100609.16;;;9.67;100.00
78562;BME280;68963;52.138;5.446;2023-12-29T02:58:05;100629.75;;;9.64;100.00
78562;BME280;68963;52.138;5.446;2023-12-29T03:00:32;100621.41;;;9.60;100.00
78562;BME280;68963;52.138;5.446;2023-12-29T03:02:59;100616.72;;;9.56;100.00
78562;BME280;68963;52.138;5.446;2023-12-29T03:05:26;100616.09;;;9.54;100.00
78562;BME280;68963;52.138;5.446;2023-12-29T03:07:52;100613.84;;;9.51;100.00
78562;BME280;68963;52.138;5.446;2023-12-29T03:10:19;100615.84;;;9.49;100.00
78562;BME280;68963;52.138;5.446;2023-12-29T03:12:46;100611.94;;;9.44;100.00
78562;BME280;68963;52.138;5.446;2023-12-29T03:15:13;100597.75;;;9.39;100.00
78562;BME280;68963;52.138;5.446;2023-12-29T03:17:40;100621.78;;;9.36;100.00
78562;BME280;68963;52.138;5.446;2023-12-29T03:20:07;100629.22;;;9.32;100.00
78562;BME280;68963;52.138;5.446;2023-12-29T03:22:34;100622.94;;;9.33;100.00
78562;BME280;68963;52.138;5.446;2023-12-29T03:25:04;100628.22;;;9.33;100.00
78562;BME280;68963;52.138;5.446;2023-12-29T03:27:30;100631.19;;;9.30;100.00
78562;BME280;68963;52.138;5.446;2023-12-29T03:29:57;100616.78;;;9.26;100.00
78562;BME280;68963;52.138;5.446;2023-12-29T03:32:24;100628.47;;;9.24;100.00
78562;BME280;68963;52.138;5.446;2023-12-29T03:34:51;100631.50;;;9.21;100.00
78562;BME280;68963;52.138;5.446;2023-12-29T03:37:17;100632.47;;;9.19;100.00
78562;BME280;68963;52.138;5.446;2023-12-29T03:39:44;100623.19;;;9.17;100.00
78562;BME280;68963;52.138;5.446;2023-12-29T03:42:11;100620.16;;;9.20;100.00
78562;BME280;68963;52.138;5.446;2023-12-29T03:44:37;100620.53;;;9.17;100.00
78562;BME280;68963;52.138;5.446;2023-12-29T03:47:04;100619.09;;;9.14;100.00
78562;BME280;68963;52.138;5.446;2023-12-29T03:49:31;100628.34;;;9.10;100.00
78562;BME280;68963;52.138;5.446;2023-12-29T03:51:58;100614.56;;;9.08;100.00
78562;BME280;68963;52.138;5.446;2023-12-29T03:54:24;100610.31;;;9.07;100.00
78562;BME280;68963;52.138;5.446;2023-12-29T03:56:51;100599.34;;;9.04;100.00
78562;BME280;68963;52.138;5.446;2023-12-29T03:59:18;100616.38;;;9.08;100.00
78562;BME280;68963;52.138;5.446;2023-12-29T04:01:44;100604.06;;;9.08;100.00
78562;BME280;68963;52.138;5.446;2023-12-29T04:04:11;100606.97;;;9.13;100.00
78562;BME280;68963;52.138;5.446;2023-12-29T04:06:38;100604.13;;;9.15;100.00
78562;BME280;68963;52.138;5.446;2023-12-29T04:09:05;100611.47;;;9.19;100.00
78562;BME280;68963;52.138;5.446;2023-12-29T04:11:31;100593.72;;;9.22;100.00
78562;BME280;68963;52.138;5.446;2023-12-29T04:13:58;100592.91;;;9.21;100.00
78562;BME280;68963;52.138;5.446;2023-12-29T04:16:24;100590.44;;;9.19;100.00
78562;BME280;68963;52.138;5.446;2023-12-29T04:18:51;100594.88;;;9.19;100.00
78562;BME280;68963;52.138;5.446;2023-12-29T04:21:19;100596.69;;;9.18;100.00
78562;BME280;68963;52.138;5.446;2023-12-29T04:23:45;100600.94;;;9.19;100.00
78562;BME280;68963;52.138;5.446;2023-12-29T04:26:13;100599.31;;;9.18;100.00
78562;BME280;68963;52.138;5.446;2023-12-29T04:28:39;100595.53;;;9.21;100.00
78562;BME280;68963;52.138;5.446;2023-12-29T04:31:06;100600.78;;;9.21;100.00
78562;BME280;68963;52.138;5.446;2023-12-29T04:33:33;100591.88;;;9.22;100.00
78562;BME280;68963;52.138;5.446;2023-12-29T04:36:00;100591.09;;;9.22;100.00
78562;BME280;68963;52.138;5.446;2023-12-29T04:38:26;100584.19;;;9.21;100.00
78562;BME280;68963;52.138;5.446;2023-12-29T04:40:53;100592.09;;;9.21;100.00
78562;BME280;68963;52.138;5.446;2023-12-29T04:43:19;100600.59;;;9.23;100.00
78562;BME280;68963;52.138;5.446;2023-12-29T04:45:46;100602.19;;;9.24;100.00
78562;BME280;68963;52.138;5.446;2023-12-29T04:48:13;100611.53;;;9.26;100.00
78562;BME280;68963;52.138;5.446;2023-12-29T04:50:39;100592.50;;;9.24;100.00
78562;BME280;68963;52.138;5.446;2023-12-29T04:53:06;100591.69;;;9.24;100.00
78562;BME280;68963;52.138;5.446;2023-12-29T04:55:33;100585.63;;;9.23;100.00
78562;BME280;68963;52.138;5.446;2023-12-29T04:58:00;100576.56;;;9.26;100.00
78562;BME280;68963;52.138;5.446;2023-12-29T05:00:27;100585.06;;;9.28;100.00
78562;BME280;68963;52.138;5.446;2023-12-29T05:02:54;100578.63;;;9.30;100.00
78562;BME280;68963;52.138;5.446;2023-12-29T05:05:20;100571.75;;;9.29;100.00
78562;BME280;68963;52.138;5.446;2023-12-29T05:07:47;100587.31;;;9.31;100.00
78562;BME280;68963;52.138;5.446;2023-12-29T05:10:13;100576.00;;;9.30;100.00
78562;BME280;68963;52.138;5.446;2023-12-29T05:12:40;100579.44;;;9.31;100.00
78562;BME280;68963;52.138;5.446;2023-12-29T05:15:07;100584.69;;;9.31;100.00
78562;BME280;68963;52.138;5.446;2023-12-29T05:17:33;100576.19;;;9.29;100.00
78562;BME280;68963;52.138;5.446;2023-12-29T05:20:00;100584.09;;;9.29;100.00
78562;BME280;68963;52.138;5.446;2023-12-29T05:22:27;100573.56;;;9.29;100.00
78562;BME280;68963;52.138;5.446;2023-12-29T05:24:55;100582.25;;;9.29;100.00
78562;BME280;68963;52.138;5.446;2023-12-29T05:27:26;100582.25;;;9.29;100.00
78562;BME280;68963;52.138;5.446;2023-12-29T05:29:53;100583.88;;;9.30;100.00
78562;BME280;68963;52.138;5.446;2023-12-29T05:32:20;100581.91;;;9.32;100.00
78562;BME280;68963;52.138;5.446;2023-12-29T05:34:46;100577.91;;;9.36;100.00
78562;BME280;68963;52.138;5.446;2023-12-29T05:37:13;100584.78;;;9.37;100.00
78562;BME280;68963;52.138;5.446;2023-12-29T05:39:43;100592.66;;;9.37;100.00
78562;BME280;68963;52.138;5.446;2023-12-29T05:42:09;100588.41;;;9.36;100.00
78562;BME280;68963;52.138;5.446;2023-12-29T05:44:36;100579.72;;;9.36;100.00
78562;BME280;68963;52.138;5.446;2023-12-29T05:47:07;100591.84;;;9.37;100.00
78562;BME280;68963;52.138;5.446;2023-12-29T05:49:33;100588.41;;;9.36;100.00
78562;BME280;68963;52.138;5.446;2023-12-29T05:52:05;100584.97;;;9.36;100.00
78562;BME280;68963;52.138;5.446;2023-12-29T05:54:33;100579.06;;;9.34;100.00
78562;BME280;68963;52.138;5.446;2023-12-29T05:57:00;100579.28;;;9.32;100.00
78562;BME280;68963;52.138;5.446;2023-12-29T05:59:26;100594.03;;;9.33;100.00
78562;BME280;68963;52.138;5.446;2023-12-29T06:01:53;100589.78;;;9.32;100.00
78562;BME280;68963;52.138;5.446;2023-12-29T06:04:20;100582.88;;;9.31;100.00
78562;BME280;68963;52.138;5.446;2023-12-29T06:06:47;100576.81;;;9.31;100.00
78562;BME280;68963;52.138;5.446;2023-12-29T06:09:13;100573.38;;;9.30;100.00
78562;BME280;68963;52.138;5.446;2023-12-29T06:11:40;100597.03;;;9.30;100.00
78562;BME280;68963;52.138;5.446;2023-12-29T06:14:07;100582.72;;;9.33;100.00
78562;BME280;68963;52.138;5.446;2023-12-29T06:16:34;100584.16;;;9.35;100.00
78562;BME280;68963;52.138;5.446;2023-12-29T06:19:00;100597.09;;;9.37;100.00
78562;BME280;68963;52.138;5.446;2023-12-29T06:21:27;100592.50;;;9.39;100.00
78562;BME280;68963;52.138;5.446;2023-12-29T06:23:54;100598.56;;;9.39;100.00
78562;BME280;68963;52.138;5.446;2023-12-29T06:26:20;100583.22;;;9.43;100.00
78562;BME280;68963;52.138;5.446;2023-12-29T06:28:49;100593.53;;;9.44;100.00
78562;BME280;68963;52.138;5.446;2023-12-29T06:31:17;100603.06;;;9.46;100.00
78562;BME280;68963;52.138;5.446;2023-12-29T06:33:44;100599.63;;;9.45;100.00
78562;BME280;68963;52.138;5.446;2023-12-29T06:36:11;100598.81;;;9.44;100.00
78562;BME280;68963;52.138;5.446;2023-12-29T06:38:38;100587.66;;;9.42;100.00
78562;BME280;68963;52.138;5.446;2023-12-29T06:41:05;100586.84;;;9.42;100.00
78562;BME280;68963;52.138;5.446;2023-12-29T06:43:31;100572.72;;;9.43;100.00
78562;BME280;68963;52.138;5.446;2023-12-29T06:45:58;100590.09;;;9.44;100.00
78562;BME280;68963;52.138;5.446;2023-12-29T06:48:25;100585.47;;;9.46;100.00
78562;BME280;68963;52.138;5.446;2023-12-29T06:50:51;100573.16;;;9.47;100.00
78562;BME280;68963;52.138;5.446;2023-12-29T06:53:18;100583.69;;;9.47;100.00
78562;BME280;68963;52.138;5.446;2023-12-29T06:55:45;100572.31;;;9.46;100.00
78562;BME280;68963;52.138;5.446;2023-12-29T06:58:11;100578.59;;;9.45;100.00
78562;BME280;68963;52.138;5.446;2023-12-29T07:00:38;100573.53;;;9.43;100.00
78562;BME280;68963;52.138;5.446;2023-12-29T07:03:07;100573.69;;;9.42;100.00
78562;BME280;68963;52.138;5.446;2023-12-29T07:05:34;100566.22;;;9.39;100.00
78562;BME280;68963;52.138;5.446;2023-12-29T07:08:01;100568.84;;;9.39;100.00
78562;BME280;68963;52.138;5.446;2023-12-29T07:10:28;100580.78;;;9.41;100.00
78562;BME280;68963;52.138;5.446;2023-12-29T07:12:55;100579.16;;;9.40;100.00
78562;BME280;68963;52.138;5.446;2023-12-29T07:15:22;100584.59;;;9.39;100.00
78562;BME280;68963;52.138;5.446;2023-12-29T07:17:49;100573.25;;;9.38;100.00
78562;BME280;68963;52.138;5.446;2023-12-29T07:20:16;100580.97;;;9.40;100.00
78562;BME280;68963;52.138;5.446;2023-12-29T07:22:43;100574.25;;;9.37;100.00
78562;BME280;68963;52.138;5.446;2023-12-29T07:25:10;100578.50;;;9.38;100.00
78562;BME280;68963;52.138;5.446;2023-12-29T07:27:37;100586.78;;;9.35;100.00
78562;BME280;68963;52.138;5.446;2023-12-29T07:30:04;100593.84;;;9.35;100.00
78562;BME280;68963;52.138;5.446;2023-12-29T07:32:31;100589.59;;;9.34;100.00
78562;BME280;68963;52.138;5.446;2023-12-29T07:34:58;100586.78;;;9.35;100.00
78562;BME280;68963;52.138;5.446;2023-12-29T07:37:25;100593.03;;;9.34;100.00
78562;BME280;68963;52.138;5.446;2023-12-29T07:39:51;100592.84;;;9.36;100.00
78562;BME280;68963;52.138;5.446;2023-12-29T07:42:18;100596.28;;;9.36;100.00
78562;BME280;68963;52.138;5.446;2023-12-29T07:44:45;100599.72;;;9.37;100.00
78562;BME280;68963;52.138;5.446;2023-12-29T07:47:12;100606.97;;;9.35;100.00
78562;BME280;68963;52.138;5.446;2023-12-29T07:49:41;100587.78;;;9.34;100.00
78562;BME280;68963;52.138;5.446;2023-12-29T07:52:08;100599.09;;;9.35;100.00
78562;BME280;68963;52.138;5.446;2023-12-29T07:54:35;100586.97;;;9.34;100.00
78562;BME280;68963;52.138;5.446;2023-12-29T07:57:02;100591.41;;;9.33;100.00
78562;BME280;68963;52.138;5.446;2023-12-29T07:59:29;100586.97;;;9.34;100.00
78562;BME280;68963;52.138;5.446;2023-12-29T08:01:55;100610.63;;;9.34;100.00
78562;BME280;68963;52.138;5.446;2023-12-29T08:04:24;100606.38;;;9.33;100.00
78562;BME280;68963;52.138;5.446;2023-12-29T08:06:50;100626.38;;;9.34;100.00
78562;BME280;68963;52.138;5.446;2023-12-29T08:09:17;100616.06;;;9.32;100.00
78562;BME280;68963;52.138;5.446;2023-12-29T08:11:44;100608.78;;;9.34;100.00
78562;BME280;68963;52.138;5.446;2023-12-29T08:14:10;100617.50;;;9.35;100.00
78562;BME280;68963;52.138;5.446;2023-12-29T08:16:41;100606.81;;;9.36;100.00
78562;BME280;68963;52.138;5.446;2023-12-29T08:19:08;100597.91;;;9.37;100.00
78562;BME280;68963;52.138;5.446;2023-12-29T08:21:36;100602.81;;;9.40;100.00
78562;BME280;68963;52.138;5.446;2023-12-29T08:24:03;100613.13;;;9.42;100.00
78562;BME280;68963;52.138;5.446;2023-12-29T08:26:30;100611.13;;;9.44;100.00
78562;BME280;68963;52.138;5.446;2023-12-29T08:28:57;100610.13;;;9.45;100.00
78562;BME280;68963;52.138;5.446;2023-12-29T08:31:23;100616.41;;;9.44;100.00
78562;BME280;68963;52.138;5.446;2023-12-29T08:33:50;100604.88;;;9.45;100.00
78562;BME280;68963;52.138;5.446;2023-12-29T08:36:20;100614.56;;;9.44;100.00
78562;BME280;68963;52.138;5.446;2023-12-29T08:38:47;100619.19;;;9.42;100.00
78562;BME280;68963;52.138;5.446;2023-12-29T08:41:14;100616.75;;;9.41;100.00
78562;BME280;68963;52.138;5.446;2023-12-29T08:43:41;100617.41;;;9.43;100.00
78562;BME280;68963;52.138;5.446;2023-12-29T08:46:07;100608.50;;;9.44;100.00
78562;BME280;68963;52.138;5.446;2023-12-29T08:48:34;100609.13;;;9.46;100.00
78562;BME280;68963;52.138;5.446;2023-12-29T08:51:01;100598.59;;;9.46;100.00
78562;BME280;68963;52.138;5.446;2023-12-29T08:53:28;100607.34;;;9.47;100.00
78562;BME280;68963;52.138;5.446;2023-12-29T08:55:57;100615.03;;;9.48;100.00
78562;BME280;68963;52.138;5.446;2023-12-29T08:58:24;100613.22;;;9.49;100.00
78562;BME280;68963;52.138;5.446;2023-12-29T09:00:50;100612.59;;;9.47;100.00
78562;BME280;68963;52.138;5.446;2023-12-29T09:03:17;100620.03;;;9.43;100.00
78562;BME280;68963;52.138;5.446;2023-12-29T09:05:44;100615.16;;;9.40;100.00
78562;BME280;68963;52.138;5.446;2023-12-29T09:08:11;100611.88;;;9.38;100.00
78562;BME280;68963;52.138;5.446;2023-12-29T09:10:37;100609.25;;;9.38;100.00
78562;BME280;68963;52.138;5.446;2023-12-29T09:13:05;100613.69;;;9.37;100.00
78562;BME280;68963;52.138;5.446;2023-12-29T09:15:32;100623.19;;;9.38;100.00
78562;BME280;68963;52.138;5.446;2023-12-29T09:17:58;100608.88;;;9.41;100.00
78562;BME280;68963;52.138;5.446;2023-12-29T09:20:26;100605.88;;;9.44;100.00
78562;BME280;68963;52.138;5.446;2023-12-29T09:22:53;100612.59;;;9.47;100.00
78562;BME280;68963;52.138;5.446;2023-12-29T09:25:20;100609.75;;;9.48;100.00
78562;BME280;68963;52.138;5.446;2023-12-29T09:27:47;100621.53;;;9.52;100.00
78562;BME280;68963;52.138;5.446;2023-12-29T09:30:16;100622.19;;;9.54;100.00
78562;BME280;68963;52.138;5.446;2023-12-29T09:32:42;100627.06;;;9.57;100.00
78562;BME280;68963;52.138;5.446;2023-12-29T09:35:09;100636.22;;;9.61;100.00
78562;BME280;68963;52.138;5.446;2023-12-29T09:37:35;100639.44;;;9.63;100.00
78562;BME280;68963;52.138;5.446;2023-12-29T09:40:02;100631.63;;;9.70;100.00
78562;BME280;68963;52.138;5.446;2023-12-29T09:42:29;100647.28;;;9.78;100.00
78562;BME280;68963;52.138;5.446;2023-12-29T09:44:58;100648.97;;;9.86;100.00
78562;BME280;68963;52.138;5.446;2023-12-29T09:47:31;100639.09;;;9.88;100.00
78562;BME280;68963;52.138;5.446;2023-12-29T09:50:01;100644.16;;;9.89;100.00
78562;BME280;68963;52.138;5.446;2023-12-29T09:52:28;100640.34;;;9.92;100.00
78562;BME280;68963;52.138;5.446;2023-12-29T09:54:55;100636.53;;;9.95;100.00
78562;BME280;68963;52.138;5.446;2023-12-29T09:57:22;100632.53;;;9.99;100.00
78562;BME280;68963;52.138;5.446;2023-12-29T09:59:49;100626.06;;;10.01;100.00
78562;BME280;68963;52.138;5.446;2023-12-29T10:02:19;100635.59;;;10.02;100.00
78562;BME280;68963;52.138;5.446;2023-12-29T10:04:46;100640.66;;;10.04;100.00
78562;BME280;68963;52.138;5.446;2023-12-29T10:07:20;100641.47;;;10.04;100.00
78562;BME280;68963;52.138;5.446;2023-12-29T10:09:55;100630.56;;;10.07;100.00
78562;BME280;68963;52.138;5.446;2023-12-29T10:12:24;100625.75;;;10.11;100.00
78562;BME280;68963;52.138;5.446;2023-12-29T10:17:51;100634.72;;;10.16;100.00
78562;BME280;68963;52.138;5.446;2023-12-29T10:24:17;100645.34;;;10.30;100.00
78562;BME280;68963;52.138;5.446;2023-12-29T10:26:11;100640.34;;;10.35;100.00
78562;BME280;68963;52.138;5.446;2023-12-29T10:28:38;100641.16;;;10.35;100.00
78562;BME280;68963;52.138;5.446;2023-12-29T10:31:05;100642.78;;;10.36;100.00
78562;BME280;68963;52.138;5.446;2023-12-29T10:33:32;100642.97;;;10.35;100.00
78562;BME280;68963;52.138;5.446;2023-12-29T10:36:01;100641.41;;;10.40;100.00
78562;BME280;68963;52.138;5.446;2023-12-29T10:38:30;100649.13;;;10.49;100.00
78562;BME280;68963;52.138;5.446;2023-12-29T10:41:14;100644.13;;;10.54;100.00
78562;BME280;68963;52.138;5.446;2023-12-29T10:43:42;100649.19;;;10.55;100.00
78562;BME280;68963;52.138;5.446;2023-12-29T10:46:10;100641.28;;;10.55;100.00
78562;BME280;68963;52.138;5.446;2023-12-29T10:48:38;100646.38;;;10.57;100.00
78562;BME280;68963;52.138;5.446;2023-12-29T10:51:06;100645.38;;;10.58;100.00
78562;BME280;68963;52.138;5.446;2023-12-29T10:53:33;100655.91;;;10.58;100.00
78562;BME280;68963;52.138;5.446;2023-12-29T10:56:16;100656.50;;;10.60;100.00
78562;BME280;68963;52.138;5.446;2023-12-29T10:58:57;100660.16;;;10.59;100.00
78562;BME280;68963;52.138;5.446;2023-12-29T11:01:24;100673.72;;;10.56;100.00
78562;BME280;68963;52.138;5.446;2023-12-29T11:03:59;100664.78;;;10.50;100.00
78562;BME280;68963;52.138;5.446;2023-12-29T11:06:27;100665.16;;;10.47;100.00
78562;BME280;68963;52.138;5.446;2023-12-29T11:08:55;100668.97;;;10.45;100.00
78562;BME280;68963;52.138;5.446;2023-12-29T11:11:22;100660.91;;;10.46;100.00
78562;BME280;68963;52.138;5.446;2023-12-29T11:13:49;100664.94;;;10.49;100.00
78562;BME280;68963;52.138;5.446;2023-12-29T11:16:16;100671.66;;;10.51;100.00
78562;BME280;68963;52.138;5.446;2023-12-29T11:18:49;100668.66;;;10.54;100.00
78562;BME280;68963;52.138;5.446;2023-12-29T11:21:19;100681.44;;;10.57;100.00
78562;BME280;68963;52.138;5.446;2023-12-29T11:23:48;100680.03;;;10.61;100.00
78562;BME280;68963;52.138;5.446;2023-12-29T11:26:15;100680.47;;;10.65;100.00
78562;BME280;68963;52.138;5.446;2023-12-29T11:28:45;100674.00;;;10.68;100.00
78562;BME280;68963;52.138;5.446;2023-12-29T11:31:13;100670.59;;;10.74;100.00
78562;BME280;68963;52.138;5.446;2023-12-29T11:33:43;100684.19;;;10.77;100.00
78562;BME280;68963;52.138;5.446;2023-12-29T11:36:17;100683.00;;;10.80;100.00
78562;BME280;68963;52.138;5.446;2023-12-29T11:39:27;100672.91;;;10.83;100.00
78562;BME280;68963;52.138;5.446;2023-12-29T11:42:04;100678.97;;;10.84;100.00
78562;BME280;68963;52.138;5.446;2023-12-29T11:44:32;100676.94;;;10.86;100.00
78562;BME280;68963;52.138;5.446;2023-12-29T11:47:00;100676.94;;;10.86;100.00
78562;BME280;68963;52.138;5.446;2023-12-29T11:49:58;100667.03;;;10.88;100.00
78562;BME280;68963;52.138;5.446;2023-12-29T11:52:36;100676.38;;;10.91;100.00
78562;BME280;68963;52.138;5.446;2023-12-29T11:55:13;100678.22;;;10.90;100.00
78562;BME280;68963;52.138;5.446;2023-12-29T11:57:41;100686.94;;;10.91;100.00
78562;BME280;68963;52.138;5.446;2023-12-29T12:00:08;100688.34;;;10.93;100.00
78562;BME280;68963;52.138;5.446;2023-12-29T12:02:36;100663.00;;;10.92;100.00
78562;BME280;68963;52.138;5.446;2023-12-29T12:05:02;100672.34;;;10.95;100.00
78562;BME280;68963;52.138;5.446;2023-12-29T12:12:48;100676.38;;;10.91;100.00
78562;BME280;68963;52.138;5.446;2023-12-29T12:17:58;100685.72;;;10.93;100.00
78562;BME280;68963;52.138;5.446;2023-12-29T12:20:26;100679.03;;;10.91;100.00
78562;BME280;68963;52.138;5.446;2023-12-29T12:22:59;100676.81;;;10.94;100.00
78562;BME280;68963;52.138;5.446;2023-12-29T12:25:27;100669.50;;;10.96;100.00
78562;BME280;68963;52.138;5.446;2023-12-29T12:27:55;100671.34;;;10.96;100.00
78562;BME280;68963;52.138;5.446;2023-12-29T12:30:23;100672.16;;;10.96;100.00
78562;BME280;68963;52.138;5.446;2023-12-29T12:32:59;100664.88;;;10.98;100.00
78562;BME280;68963;52.138;5.446;2023-12-29T12:35:27;100667.72;;;11.03;100.00
78562;BME280;68963;52.138;5.446;2023-12-29T12:38:07;100665.09;;;11.03;100.00
78562;BME280;68963;52.138;5.446;2023-12-29T12:40:35;100665.09;;;11.03;100.00
78562;BME280;68963;52.138;5.446;2023-12-29T12:43:02;100656.16;;;11.04;100.00
78562;BME280;68963;52.138;5.446;2023-12-29T12:45:34;100664.50;;;11.08;100.00
78562;BME280;68963;52.138;5.446;2023-12-29T12:48:10;100662.88;;;11.07;100.00
78562;BME280;68963;52.138;5.446;2023-12-29T12:50:43;100647.44;;;11.04;100.00
78562;BME280;68963;52.138;5.446;2023-12-29T12:53:12;100653.75;;;11.03;100.00
78562;BME280;68963;52.138;5.446;2023-12-29T12:55:41;100641.75;;;11.00;100.00
78562;BME280;68963;52.138;5.446;2023-12-29T12:58:08;100653.34;;;11.06;100.00
78562;BME280;68963;52.138;5.446;2023-12-29T13:00:35;100643.41;;;11.08;100.00
78562;BME280;68963;52.138;5.446;2023-12-29T13:03:02;100649.53;;;11.08;100.00
78562;BME280;68963;52.138;5.446;2023-12-29T13:05:30;100651.53;;;11.06;100.00
78562;BME280;68963;52.138;5.446;2023-12-29T13:07:57;100641.78;;;11.07;100.00